Time;durP1;ratioP1;P1;durP2;ratioP2;P2;SDS_P1;SDS_P2;PMS_P1;PMS_P2;Temp;Humidity;BMP_temperature;BMP_pressure;BME280_temperature;BME280_humidity;BME280_pressure;Samples;Min_cycle;Max_cycle;Signal;HPM_P1;HPM_P2
2024/03/05 00:02:14;;;;;;;127.30;68.90;;;;;;;;;;107050;1252;61096;-81
2024/03/05 00:04:40;;;;;;;114.10;64.60;;;;;;;;;;106920;1254;61222;-82
2024/03/05 00:07:10;;;;;;;115.70;62.70;;;;;;;;;;107044;1254;61324;-82
2024/03/05 00:09:36;;;;;;;109.00;60.30;;;;;;;;;;107074;1254;62216;-82
2024/03/05 00:12:03;;;;;;;110.10;60.20;;;;;;;;;;106816;1260;61276;-82
2024/03/05 00:14:31;;;;;;;116.20;60.80;;;;;;;;;;107123;1252;61256;-82
2024/03/05 00:16:57;;;;;;;124.30;67.50;;;;;;;;;;106904;1255;61270;-81
2024/03/05 00:19:25;;;;;;;118.10;69.30;;;;;;;;;;107063;1254;61157;-82
2024/03/05 00:21:52;;;;;;;118.80;64.40;;;;;;;;;;106858;1254;60092;-82
2024/03/05 00:24:19;;;;;;;125.10;66.10;;;;;;;;;;106867;1254;61157;-82
2024/03/05 00:26:45;;;;;;;131.80;70.90;;;;;;;;;;107002;1253;60247;-81
2024/03/05 00:29:12;;;;;;;124.80;74.70;;;;;;;;;;107028;1254;61237;-82
2024/03/05 00:31:39;;;;;;;113.10;62.60;;;;;;;;;;106898;1254;61285;-82
2024/03/05 00:34:06;;;;;;;126.30;66.90;;;;;;;;;;107152;1253;61238;-82
2024/03/05 00:36:32;;;;;;;137.30;73.50;;;;;;;;;;106802;1254;61234;-82
2024/03/05 00:38:59;;;;;;;124.80;72.70;;;;;;;;;;107087;1254;62400;-81
2024/03/05 00:41:25;;;;;;;128.70;73.40;;;;;;;;;;107109;1254;61358;-82
2024/03/05 00:43:52;;;;;;;133.40;74.90;;;;;;;;;;107063;1254;59975;-81
2024/03/05 00:46:20;;;;;;;128.40;74.70;;;;;;;;;;106864;1254;61221;-82
2024/03/05 00:48:47;;;;;;;119.80;65.70;;;;;;;;;;107032;1254;60256;-82
2024/03/05 00:51:13;;;;;;;122.30;68.40;;;;;;;;;;107047;1252;61225;-82
2024/03/05 00:53:39;;;;;;;113.60;61.10;;;;;;;;;;106881;1254;61096;-82
2024/03/05 00:56:06;;;;;;;109.80;60.40;;;;;;;;;;107075;1254;61574;-82
2024/03/05 00:58:33;;;;;;;108.50;61.90;;;;;;;;;;107080;1254;61197;-81
2024/03/05 01:01:01;;;;;;;102.70;54.50;;;;;;;;;;107076;1253;61212;-83
2024/03/05 01:03:27;;;;;;;109.30;58.30;;;;;;;;;;107047;1256;61352;-83
2024/03/05 01:05:54;;;;;;;111.00;60.90;;;;;;;;;;107095;1254;61074;-81
2024/03/05 01:08:21;;;;;;;118.80;67.80;;;;;;;;;;106899;1253;61326;-81
2024/03/05 01:10:47;;;;;;;114.20;60.30;;;;;;;;;;107017;1256;61267;-82
2024/03/05 01:13:14;;;;;;;97.90;55.30;;;;;;;;;;107068;1253;61227;-82
2024/03/05 01:15:41;;;;;;;100.70;56.40;;;;;;;;;;107030;1254;61209;-83
2024/03/05 01:18:07;;;;;;;85.50;47.50;;;;;;;;;;107089;1254;61333;-82
2024/03/05 01:20:37;;;;;;;85.10;44.00;;;;;;;;;;106944;1254;61917;-82
2024/03/05 01:23:03;;;;;;;78.20;47.50;;;;;;;;;;106891;1254;61225;-81
2024/03/05 01:25:30;;;;;;;84.90;47.70;;;;;;;;;;107040;1252;61363;-82
2024/03/05 01:27:57;;;;;;;88.40;50.50;;;;;;;;;;107052;1254;61244;-81
2024/03/05 01:30:24;;;;;;;79.50;45.70;;;;;;;;;;109475;1253;59083;-82
2024/03/05 01:32:52;;;;;;;81.90;48.00;;;;;;;;;;109479;1252;58905;-83
2024/03/05 01:35:18;;;;;;;85.60;46.80;;;;;;;;;;109490;1253;58872;-81
2024/03/05 01:37:45;;;;;;;87.90;47.00;;;;;;;;;;107877;1253;61352;-81
2024/03/05 01:40:11;;;;;;;88.40;48.90;;;;;;;;;;106997;1256;61174;-81
2024/03/05 01:42:38;;;;;;;83.40;46.80;;;;;;;;;;107053;1254;61349;-82
2024/03/05 01:45:04;;;;;;;89.30;47.40;;;;;;;;;;107073;1254;61320;-83
2024/03/05 01:47:33;;;;;;;83.10;45.50;;;;;;;;;;107063;1253;59284;-81
2024/03/05 01:50:00;;;;;;;;;;;;;;;;;;106940;1254;59633;-82
2024/03/05 01:52:27;;;;;;;97.70;51.90;;;;;;;;;;107087;1256;61107;-81
2024/03/05 01:54:55;;;;;;;90.60;50.50;;;;;;;;;;106947;1252;61630;-82
2024/03/05 01:57:22;;;;;;;86.50;48.80;;;;;;;;;;106914;1254;61998;-83
2024/03/05 01:59:48;;;;;;;100.00;52.50;;;;;;;;;;107029;1253;61241;-81
2024/03/05 02:02:15;;;;;;;88.20;53.10;;;;;;;;;;107120;1253;61369;-83
2024/03/05 02:04:42;;;;;;;93.60;50.10;;;;;;;;;;107047;1254;61263;-83
2024/03/05 02:07:11;;;;;;;105.50;59.10;;;;;;;;;;107001;1253;61132;-81
2024/03/05 02:09:38;;;;;;;89.00;49.20;;;;;;;;;;107035;1256;62542;-82
2024/03/05 02:12:04;;;;;;;98.10;54.60;;;;;;;;;;106953;1253;61838;-81
2024/03/05 02:14:31;;;;;;;92.70;55.50;;;;;;;;;;107110;1253;61132;-80
2024/03/05 02:16:58;;;;;;;98.10;53.50;;;;;;;;;;107088;1253;59791;-82
2024/03/05 02:19:24;;;;;;;111.90;60.30;;;;;;;;;;109510;1252;59010;-82
2024/03/05 02:22:03;;;;;;;105.20;57.70;;;;;;;;;;109416;1253;63159;-83
2024/03/05 02:24:29;;;;;;;97.80;54.50;;;;;;;;;;109400;1252;59742;-83
2024/03/05 02:26:56;;;;;;;93.60;48.40;;;;;;;;;;107161;1258;61315;-82
2024/03/05 02:29:25;;;;;;;89.80;51.70;;;;;;;;;;107078;1256;61100;-82
2024/03/05 02:31:52;;;;;;;101.50;55.50;;;;;;;;;;107143;1253;59705;-81
2024/03/05 02:34:19;;;;;;;104.50;54.70;;;;;;;;;;107096;1253;61243;-82
2024/03/05 02:36:45;;;;;;;94.80;52.80;;;;;;;;;;106877;1254;61365;-82
2024/03/05 02:39:12;;;;;;;89.60;53.60;;;;;;;;;;106894;1254;61221;-82
2024/03/05 02:41:39;;;;;;;95.40;50.10;;;;;;;;;;107053;1253;61228;-82
2024/03/05 02:44:05;;;;;;;88.80;50.80;;;;;;;;;;107015;1253;61337;-82
2024/03/05 02:46:31;;;;;;;89.10;48.20;;;;;;;;;;106477;1254;61157;-82
2024/03/05 02:48:59;;;;;;;87.30;48.30;;;;;;;;;;106977;1256;61157;-82
2024/03/05 02:51:28;;;;;;;94.90;47.60;;;;;;;;;;107087;1254;61215;-82
2024/03/05 02:53:55;;;;;;;;;;;;;;;;;;107037;1253;62323;-82
2024/03/05 02:56:21;;;;;;;85.00;48.30;;;;;;;;;;107043;1253;61217;-83
2024/03/05 02:58:48;;;;;;;91.30;49.60;;;;;;;;;;107040;1255;62987;-82
2024/03/05 03:01:14;;;;;;;93.80;51.60;;;;;;;;;;107123;1254;61351;-82
2024/03/05 03:03:40;;;;;;;86.00;49.00;;;;;;;;;;107292;1256;60928;-81
2024/03/05 03:06:13;;;;;;;90.70;53.80;;;;;;;;;;106971;1254;61265;-82
2024/03/05 03:08:40;;;;;;;93.60;54.20;;;;;;;;;;107132;1256;59153;-83
2024/03/05 03:11:07;;;;;;;100.10;54.80;;;;;;;;;;107149;1253;61627;-82
2024/03/05 03:13:33;;;;;;;89.60;51.70;;;;;;;;;;107139;1256;61308;-83
2024/03/05 03:16:00;;;;;;;95.00;52.50;;;;;;;;;;107048;1253;61289;-83
2024/03/05 03:18:26;;;;;;;93.20;51.60;;;;;;;;;;107019;1253;59442;-81
2024/03/05 03:20:53;;;;;;;86.80;48.70;;;;;;;;;;108180;1253;59948;-82
2024/03/05 03:23:19;;;;;;;89.90;54.00;;;;;;;;;;107154;1253;61327;-81
2024/03/05 03:25:46;;;;;;;100.80;54.70;;;;;;;;;;107096;1253;61259;-81
2024/03/05 03:28:12;;;;;;;88.90;52.40;;;;;;;;;;107054;1253;61276;-81
2024/03/05 03:30:39;;;;;;;83.90;53.10;;;;;;;;;;107085;1253;61250;-83
2024/03/05 03:33:05;;;;;;;89.80;50.90;;;;;;;;;;107121;1254;61253;-81
2024/03/05 03:35:32;;;;;;;84.40;47.40;;;;;;;;;;106881;1257;61336;-81
2024/03/05 03:37:58;;;;;;;80.90;48.00;;;;;;;;;;107121;1254;61263;-82
2024/03/05 03:40:25;;;;;;;86.80;52.30;;;;;;;;;;107093;1252;62042;-82
2024/03/05 03:42:51;;;;;;;75.60;44.00;;;;;;;;;;107060;1253;60715;-82
2024/03/05 03:45:18;;;;;;;83.00;49.70;;;;;;;;;;107136;1253;61355;-82
2024/03/05 03:47:46;;;;;;;113.40;63.00;;;;;;;;;;107067;1253;61976;-81
2024/03/05 03:50:13;;;;;;;104.50;65.00;;;;;;;;;;107056;1256;62340;-83
2024/03/05 03:52:39;;;;;;;107.70;60.50;;;;;;;;;;107087;1253;60234;-83
2024/03/05 03:55:06;;;;;;;90.30;52.90;;;;;;;;;;107043;1253;61221;-81
2024/03/05 03:57:34;;;;;;;92.30;51.90;;;;;;;;;;107040;1253;61140;-83
2024/03/05 04:00:02;;;;;;;80.10;47.30;;;;;;;;;;107102;1253;61926;-81
2024/03/05 04:02:28;;;;;;;85.60;45.50;;;;;;;;;;107064;1253;61177;-82
2024/03/05 04:04:55;;;;;;;83.00;49.20;;;;;;;;;;107079;1253;61273;-82
2024/03/05 04:07:23;;;;;;;93.90;52.00;;;;;;;;;;107045;1253;61248;-83
2024/03/05 04:09:50;;;;;;;82.50;45.80;;;;;;;;;;107044;1253;61196;-82
2024/03/05 04:12:17;;;;;;;87.90;49.60;;;;;;;;;;106485;1253;61427;-82
2024/03/05 04:14:43;;;;;;;87.60;50.20;;;;;;;;;;107166;1252;61201;-82
2024/03/05 04:17:10;;;;;;;87.20;49.90;;;;;;;;;;106887;1253;61417;-82
2024/03/05 04:19:36;;;;;;;90.40;53.70;;;;;;;;;;107040;1254;62340;-81
2024/03/05 04:22:02;;;;;;;91.50;50.90;;;;;;;;;;107140;1253;61292;-83
2024/03/05 04:24:30;;;;;;;90.00;49.00;;;;;;;;;;107092;1253;61226;-83
2024/03/05 04:27:02;;;;;;;85.70;48.00;;;;;;;;;;107099;1256;61241;-82
2024/03/05 04:29:32;;;;;;;78.10;48.20;;;;;;;;;;107073;1253;61243;-80
2024/03/05 04:32:05;;;;;;;90.00;49.70;;;;;;;;;;107067;1254;60774;-81
2024/03/05 04:34:32;;;;;;;87.70;48.60;;;;;;;;;;107081;1253;61340;-82
2024/03/05 04:36:58;;;;;;;84.80;46.20;;;;;;;;;;107128;1253;61944;-82
2024/03/05 04:39:25;;;;;;;78.50;47.80;;;;;;;;;;106885;1253;61306;-82
2024/03/05 04:41:51;;;;;;;71.50;44.80;;;;;;;;;;107043;1254;61896;-82
2024/03/05 04:44:18;;;;;;;79.90;46.10;;;;;;;;;;106907;1254;62219;-82
2024/03/05 04:46:44;;;;;;;80.20;50.00;;;;;;;;;;107156;1253;61329;-83
2024/03/05 04:49:11;;;;;;;82.10;48.10;;;;;;;;;;107161;1253;61346;-83
2024/03/05 04:51:37;;;;;;;78.40;44.50;;;;;;;;;;107036;1253;61252;-82
2024/03/05 04:54:04;;;;;;;86.70;47.40;;;;;;;;;;107050;1253;59382;-82
2024/03/05 04:56:30;;;;;;;86.50;53.10;;;;;;;;;;107050;1253;61258;-80
2024/03/05 04:58:57;;;;;;;81.50;50.00;;;;;;;;;;107173;1253;61100;-82
2024/03/05 05:01:23;;;;;;;83.60;48.60;;;;;;;;;;107091;1254;60941;-82
2024/03/05 05:03:49;;;;;;;76.60;46.50;;;;;;;;;;107069;1256;61160;-82
2024/03/05 05:06:16;;;;;;;78.80;45.40;;;;;;;;;;107040;1252;61363;-82
2024/03/05 05:08:42;;;;;;;72.60;44.00;;;;;;;;;;107091;1252;59209;-82
2024/03/05 05:11:09;;;;;;;39.20;20.40;;;;;;;;;;107116;1253;61247;-82
2024/03/05 05:13:35;;;;;;;30.70;17.60;;;;;;;;;;107191;1253;61258;-83
2024/03/05 05:16:02;;;;;;;27.90;15.80;;;;;;;;;;109073;1257;61161;-82
2024/03/05 05:18:28;;;;;;;27.10;14.20;;;;;;;;;;109443;1253;58936;-83
2024/03/05 05:20:55;;;;;;;25.10;14.60;;;;;;;;;;109423;1253;59286;-82
2024/03/05 05:23:22;;;;;;;36.00;16.30;;;;;;;;;;109495;1253;59006;-82
2024/03/05 05:25:48;;;;;;;30.80;15.40;;;;;;;;;;109494;1252;59178;-82
2024/03/05 05:28:14;;;;;;;35.40;15.80;;;;;;;;;;108011;1253;61241;-82
2024/03/05 05:30:41;;;;;;;31.40;16.20;;;;;;;;;;107080;1254;61339;-81
2024/03/05 05:33:07;;;;;;;33.20;19.50;;;;;;;;;;107070;1256;59191;-81
2024/03/05 05:35:37;;;;;;;35.10;18.90;;;;;;;;;;106909;1253;61305;-81
2024/03/05 05:38:03;;;;;;;33.50;18.10;;;;;;;;;;107188;1253;61862;-83
2024/03/05 05:40:30;;;;;;;30.00;16.70;;;;;;;;;;107079;1253;61323;-82
2024/03/05 05:42:58;;;;;;;36.30;20.30;;;;;;;;;;107157;1253;61272;-82
2024/03/05 05:45:24;;;;;;;34.70;17.80;;;;;;;;;;106874;1256;249454;-82
2024/03/05 05:47:51;;;;;;;32.70;16.30;;;;;;;;;;107078;1253;61141;-81
2024/03/05 05:50:17;;;;;;;27.70;13.90;;;;;;;;;;107108;1253;61221;-83
2024/03/05 05:52:44;;;;;;;25.90;14.60;;;;;;;;;;107094;1254;61356;-82
2024/03/05 05:55:14;;;;;;;27.70;14.80;;;;;;;;;;107146;1252;61259;-83
2024/03/05 05:57:44;;;;;;;22.30;13.70;;;;;;;;;;107075;1253;61301;-82
2024/03/05 06:00:22;;;;;;;25.60;14.50;;;;;;;;;;106945;1254;61282;-81
2024/03/05 06:02:52;;;;;;;25.80;15.00;;;;;;;;;;107166;1253;61772;-83
2024/03/05 06:05:24;;;;;;;24.30;13.80;;;;;;;;;;107952;1256;61109;-81
2024/03/05 06:07:51;;;;;;;23.70;14.40;;;;;;;;;;107108;1254;60263;-82
2024/03/05 06:10:17;;;;;;;24.30;13.90;;;;;;;;;;108883;1252;59125;-83
2024/03/05 06:12:45;;;;;;;21.90;13.40;;;;;;;;;;109474;1253;59175;-82
2024/03/05 06:15:11;;;;;;;26.10;15.90;;;;;;;;;;109521;1253;60435;-83
2024/03/05 06:17:39;;;;;;;31.10;16.30;;;;;;;;;;109472;1253;58915;-83
2024/03/05 06:20:10;;;;;;;30.00;17.40;;;;;;;;;;109336;1252;59241;-82
2024/03/05 06:22:43;;;;;;;24.60;15.70;;;;;;;;;;108865;1252;59767;-82
2024/03/05 06:25:11;;;;;;;27.50;16.70;;;;;;;;;;108783;1253;59005;-83
2024/03/05 06:27:38;;;;;;;33.40;17.30;;;;;;;;;;109485;1253;62910;-82
2024/03/05 06:30:19;;;;;;;31.00;17.50;;;;;;;;;;109351;1251;58927;-82
2024/03/05 06:32:47;;;;;;;25.60;15.70;;;;;;;;;;109304;1253;59132;-82
2024/03/05 06:35:14;;;;;;;24.60;13.50;;;;;;;;;;109430;1253;58812;-82
2024/03/05 06:37:40;;;;;;;24.40;14.70;;;;;;;;;;109450;1252;59019;-82
2024/03/05 06:40:09;;;;;;;21.20;13.60;;;;;;;;;;109463;1253;61529;-83
2024/03/05 06:42:36;;;;;;;26.70;14.50;;;;;;;;;;109464;1253;58863;-83
2024/03/05 06:45:06;;;;;;;24.10;13.90;;;;;;;;;;109442;1253;58826;-83
2024/03/05 06:47:38;;;;;;;22.90;14.40;;;;;;;;;;107280;1255;61219;-82
2024/03/05 06:50:07;;;;;;;24.30;14.20;;;;;;;;;;107082;1251;61227;-83
2024/03/05 06:58:04;;;;;;;26.50;15.10;;;;;;;;;;106990;1251;61231;-82
2024/03/05 07:00:30;;;;;;;26.20;16.20;;;;;;;;;;107289;1253;61026;-81
2024/03/05 07:02:57;;;;;;;23.10;14.30;;;;;;;;;;107524;1253;61192;-81
2024/03/05 07:05:24;;;;;;;28.90;16.80;;;;;;;;;;107152;1256;62973;-82
2024/03/05 07:07:50;;;;;;;24.10;15.50;;;;;;;;;;106906;1253;61189;-81
2024/03/05 07:10:21;;;;;;;23.30;14.80;;;;;;;;;;107152;1254;61254;-83
2024/03/05 07:12:50;;;;;;;27.10;16.00;;;;;;;;;;107215;1256;61224;-82
2024/03/05 07:15:17;;;;;;;26.70;15.50;;;;;;;;;;106960;1253;61225;-81
2024/03/05 07:17:43;;;;;;;23.10;13.80;;;;;;;;;;107321;1256;61884;-82
2024/03/05 07:20:22;;;;;;;26.20;14.50;;;;;;;;;;107538;1252;61171;-81
2024/03/05 07:22:49;;;;;;;25.20;15.70;;;;;;;;;;107174;1255;61602;-83
2024/03/05 07:25:15;;;;;;;21.90;13.40;;;;;;;;;;107138;1254;61193;-83
2024/03/05 07:27:46;;;;;;;28.60;14.60;;;;;;;;;;107173;1256;61161;-81
2024/03/05 07:30:20;;;;;;;25.70;16.30;;;;;;;;;;107508;1254;61972;-82
2024/03/05 07:32:46;;;;;;;25.50;15.00;;;;;;;;;;109460;1253;59309;-83
2024/03/05 07:35:13;;;;;;;22.80;15.30;;;;;;;;;;108456;1253;60231;-81
2024/03/05 07:37:46;;;;;;;24.80;15.50;;;;;;;;;;107476;1251;61445;-81
2024/03/05 07:40:17;;;;;;;24.50;15.90;;;;;;;;;;107503;1253;61346;-82
2024/03/05 07:42:44;;;;;;;23.30;15.00;;;;;;;;;;107510;1253;62572;-82
2024/03/05 07:45:12;;;;;;;33.00;19.20;;;;;;;;;;107433;1252;61362;-82
2024/03/05 07:47:39;;;;;;;34.20;18.00;;;;;;;;;;107486;1251;61238;-81
2024/03/05 07:50:06;;;;;;;28.70;17.20;;;;;;;;;;107258;1253;61241;-83
2024/03/05 07:52:33;;;;;;;37.40;20.60;;;;;;;;;;107266;1253;59929;-81
2024/03/05 07:54:59;;;;;;;34.50;20.90;;;;;;;;;;107335;1253;61255;-81
2024/03/05 07:57:26;;;;;;;32.30;18.60;;;;;;;;;;107415;1251;61155;-83
2024/03/05 07:59:52;;;;;;;27.40;16.90;;;;;;;;;;107255;1258;61318;-81
2024/03/05 08:02:18;;;;;;;27.10;16.00;;;;;;;;;;107143;1254;61336;-81
2024/03/05 08:04:45;;;;;;;25.40;16.20;;;;;;;;;;107308;1255;60317;-81
2024/03/05 08:07:11;;;;;;;26.20;16.00;;;;;;;;;;107603;1253;61290;-83
2024/03/05 08:09:38;;;;;;;27.70;15.10;;;;;;;;;;107169;1253;61353;-83
2024/03/05 08:12:04;;;;;;;27.40;15.60;;;;;;;;;;107421;1251;61250;-82
2024/03/05 08:14:31;;;;;;;31.00;18.10;;;;;;;;;;107411;1253;61206;-81
2024/03/05 08:16:58;;;;;;;29.50;16.40;;;;;;;;;;107337;1252;61314;-83
2024/03/05 08:19:24;;;;;;;24.60;15.60;;;;;;;;;;107570;1256;61362;-82
2024/03/05 08:21:51;;;;;;;35.40;19.70;;;;;;;;;;107431;1252;61251;-83
2024/03/05 08:24:18;;;;;;;32.10;18.50;;;;;;;;;;107192;1254;61196;-83
2024/03/05 08:26:45;;;;;;;40.20;20.20;;;;;;;;;;107463;1253;61248;-83
2024/03/05 08:29:11;;;;;;;35.70;18.80;;;;;;;;;;107346;1256;61301;-83
2024/03/05 08:31:38;;;;;;;34.70;20.30;;;;;;;;;;107204;1253;61230;-81
2024/03/05 08:34:05;;;;;;;39.70;22.50;;;;;;;;;;107140;1253;61182;-83
2024/03/05 08:36:36;;;;;;;54.10;27.70;;;;;;;;;;107399;1255;61255;-83
2024/03/05 08:39:05;;;;;;;43.00;20.90;;;;;;;;;;107223;1253;61112;-82
2024/03/05 08:41:32;;;;;;;48.90;25.30;;;;;;;;;;107320;1251;61220;-81
2024/03/05 08:43:58;;;;;;;51.20;26.50;;;;;;;;;;107194;1253;63037;-83
2024/03/05 08:46:24;;;;;;;50.50;24.00;;;;;;;;;;107259;1256;61396;-81
2024/03/05 08:48:52;;;;;;;44.60;23.60;;;;;;;;;;107309;1253;61286;-83
2024/03/05 08:51:18;;;;;;;51.50;27.70;;;;;;;;;;107250;1256;61350;-81
2024/03/05 08:53:45;;;;;;;51.60;27.10;;;;;;;;;;107300;1254;61161;-81
2024/03/05 08:56:11;;;;;;;48.60;27.50;;;;;;;;;;107257;1253;61181;-82
2024/03/05 08:58:38;;;;;;;53.10;26.40;;;;;;;;;;107369;1253;61251;-83
2024/03/05 09:01:06;;;;;;;66.20;34.60;;;;;;;;;;107214;1253;61202;-83
2024/03/05 09:03:33;;;;;;;59.90;29.40;;;;;;;;;;107373;1253;61256;-81
2024/03/05 09:05:59;;;;;;;54.90;28.50;;;;;;;;;;107182;1256;61170;-83
2024/03/05 09:08:25;;;;;;;52.70;25.30;;;;;;;;;;107414;1256;61225;-81
2024/03/05 09:10:52;;;;;;;47.10;26.60;;;;;;;;;;107306;1254;61227;-82
2024/03/05 09:13:18;;;;;;;46.60;25.40;;;;;;;;;;107229;1253;59531;-81
2024/03/05 09:15:45;;;;;;;44.70;23.90;;;;;;;;;;107308;1253;60477;-83
2024/03/05 09:18:13;;;;;;;51.10;25.80;;;;;;;;;;107572;1253;61336;-82
2024/03/05 09:20:41;;;;;;;50.40;25.20;;;;;;;;;;107414;1254;61920;-83
2024/03/05 09:23:08;;;;;;;51.70;25.60;;;;;;;;;;107142;1253;60977;-81
2024/03/05 09:25:36;;;;;;;43.40;20.70;;;;;;;;;;107346;1253;60029;-83
2024/03/05 09:28:04;;;;;;;47.10;23.10;;;;;;;;;;107442;1253;61222;-83
2024/03/05 09:30:32;;;;;;;43.50;22.50;;;;;;;;;;107202;1253;59565;-82
2024/03/05 09:32:58;;;;;;;44.90;24.30;;;;;;;;;;108812;1253;61266;-83
2024/03/05 09:35:25;;;;;;;45.90;22.50;;;;;;;;;;109388;1253;59034;-83
2024/03/05 09:37:51;;;;;;;46.50;22.40;;;;;;;;;;109290;1251;58875;-83
2024/03/05 09:40:18;;;;;;;37.70;20.00;;;;;;;;;;109461;1251;58974;-84
2024/03/05 09:42:44;;;;;;;38.90;22.00;;;;;;;;;;109442;1251;59266;-83
2024/03/05 09:45:14;;;;;;;41.50;20.90;;;;;;;;;;109418;1254;59110;-83
2024/03/05 09:47:42;;;;;;;37.20;21.00;;;;;;;;;;107553;1251;61223;-82
2024/03/05 09:50:11;;;;;;;43.00;23.50;;;;;;;;;;107232;1254;61282;-83
2024/03/05 09:52:38;;;;;;;44.50;22.60;;;;;;;;;;107341;1256;61362;-83
2024/03/05 09:55:04;;;;;;;53.00;26.20;;;;;;;;;;107102;1253;61790;-81
2024/03/05 09:57:33;;;;;;;40.40;23.40;;;;;;;;;;107467;1251;60618;-83
2024/03/05 09:59:59;;;;;;;43.50;23.10;;;;;;;;;;107246;1253;61260;-82
2024/03/05 10:02:26;;;;;;;39.50;21.70;;;;;;;;;;107445;1256;61250;-82
2024/03/05 10:04:54;;;;;;;43.90;23.00;;;;;;;;;;107261;1253;61358;-83
2024/03/05 10:07:25;;;;;;;39.70;21.20;;;;;;;;;;109362;1257;58950;-83
2024/03/05 10:10:05;;;;;;;41.10;19.80;;;;;;;;;;108301;1256;62000;-83
2024/03/05 10:12:31;;;;;;;37.60;20.50;;;;;;;;;;107349;1253;61218;-83
2024/03/05 10:15:14;;;;;;;37.80;22.40;;;;;;;;;;107293;1254;61259;-82
2024/03/05 10:17:41;;;;;;;37.90;19.30;;;;;;;;;;107157;1253;59134;-81
2024/03/05 10:20:10;;;;;;;37.40;19.80;;;;;;;;;;107370;1252;61244;-83
2024/03/05 10:22:36;;;;;;;35.60;18.30;;;;;;;;;;107372;1253;61969;-82
2024/03/05 10:25:12;;;;;;;36.30;20.70;;;;;;;;;;107391;1253;61037;-82
2024/03/05 10:27:38;;;;;;;34.60;17.60;;;;;;;;;;107528;1252;61196;-81
2024/03/05 10:30:17;;;;;;;37.70;19.10;;;;;;;;;;107275;1252;61196;-81
2024/03/05 10:32:45;;;;;;;27.40;17.10;;;;;;;;;;107219;1254;61345;-83
2024/03/05 10:35:12;;;;;;;31.80;18.10;;;;;;;;;;107251;1253;62967;-81
2024/03/05 10:37:38;;;;;;;35.80;21.00;;;;;;;;;;107448;1256;61353;-81
2024/03/05 10:40:08;;;;;;;30.30;19.70;;;;;;;;;;107302;1253;61443;-82
2024/03/05 10:42:38;;;;;;;33.60;19.80;;;;;;;;;;107406;1253;61169;-82
2024/03/05 10:45:05;;;;;;;35.20;19.00;;;;;;;;;;107271;1256;61123;-82
2024/03/05 10:47:32;;;;;;;26.50;15.60;;;;;;;;;;107384;1253;61942;-83
2024/03/05 10:49:58;;;;;;;32.90;19.10;;;;;;;;;;107338;1254;61349;-83
2024/03/05 10:52:26;;;;;;;30.30;17.10;;;;;;;;;;107167;1253;61247;-83
2024/03/05 10:54:52;;;;;;;35.00;20.90;;;;;;;;;;107282;1253;60250;-81
2024/03/05 10:57:19;;;;;;;34.40;22.80;;;;;;;;;;107548;1251;61253;-83
2024/03/05 10:59:52;;;;;;;34.90;21.10;;;;;;;;;;107113;1254;61285;-81
2024/03/05 11:02:19;;;;;;;35.00;22.00;;;;;;;;;;107283;1256;61110;-83
2024/03/05 11:04:46;;;;;;;30.70;18.90;;;;;;;;;;107199;1258;61107;-81
2024/03/05 11:07:12;;;;;;;33.80;18.40;;;;;;;;;;107440;1257;62473;-83
2024/03/05 11:09:39;;;;;;;39.60;19.80;;;;;;;;;;107381;1256;61231;-83
2024/03/05 11:12:07;;;;;;;38.40;22.70;;;;;;;;;;107202;1256;61103;-81
2024/03/05 11:14:35;;;;;;;37.20;22.80;;;;;;;;;;107464;1251;61025;-82
2024/03/05 11:17:11;;;;;;;31.70;20.00;;;;;;;;;;107431;1254;59874;-82
2024/03/05 11:19:44;;;;;;;32.90;18.70;;;;;;;;;;107245;1251;61262;-82
2024/03/05 11:22:22;;;;;;;34.20;20.80;;;;;;;;;;107321;1252;61186;-83
2024/03/05 11:25:01;;;;;;;34.70;20.40;;;;;;;;;;107309;1253;61198;-83
2024/03/05 11:27:28;;;;;;;32.70;17.30;;;;;;;;;;107301;1251;61353;-83
2024/03/05 11:30:16;;;;;;;44.50;25.40;;;;;;;;;;107359;1251;61136;-82
2024/03/05 11:32:47;;;;;;;41.20;26.70;;;;;;;;;;107321;1252;61340;-82
2024/03/05 11:35:15;;;;;;;34.50;21.10;;;;;;;;;;107307;1254;61117;-82
2024/03/05 11:37:51;;;;;;;33.40;21.00;;;;;;;;;;108455;1253;62395;-84
2024/03/05 11:40:21;;;;;;;34.50;20.20;;;;;;;;;;109429;1253;58987;-83
2024/03/05 11:42:47;;;;;;;40.80;23.20;;;;;;;;;;107919;1254;61239;-83
2024/03/05 11:45:33;;;;;;;36.50;20.10;;;;;;;;;;107371;1256;61226;-82
2024/03/05 11:47:59;;;;;;;35.60;22.00;;;;;;;;;;107518;1256;60989;-82
2024/03/05 11:50:25;;;;;;;39.70;21.70;;;;;;;;;;107279;1254;61161;-82
2024/03/05 11:52:52;;;;;;;38.50;22.00;;;;;;;;;;107517;1252;59941;-84
2024/03/05 11:55:25;;;;;;;40.90;22.90;;;;;;;;;;107046;1258;61387;-82
2024/03/05 11:57:55;;;;;;;37.20;20.10;;;;;;;;;;107243;1254;61212;-83
2024/03/05 12:00:22;;;;;;;35.90;19.80;;;;;;;;;;108277;1254;62261;-84
2024/03/05 12:02:52;;;;;;;36.30;21.60;;;;;;;;;;107454;1253;60689;-84
2024/03/05 12:05:19;;;;;;;37.50;22.00;;;;;;;;;;107356;1254;61235;-83
2024/03/05 12:08:01;;;;;;;36.60;22.00;;;;;;;;;;107365;1252;61280;-83
2024/03/05 12:10:31;;;;;;;36.40;20.00;;;;;;;;;;107397;1253;61286;-82
2024/03/05 12:12:59;;;;;;;34.10;19.00;;;;;;;;;;107553;1255;61123;-85
2024/03/05 12:15:29;;;;;;;33.60;19.60;;;;;;;;;;107503;1254;62379;-82
2024/03/05 12:17:56;;;;;;;33.60;20.50;;;;;;;;;;107641;1256;62633;-82
2024/03/05 12:20:22;;;;;;;34.30;18.90;;;;;;;;;;107392;1253;61330;-84
2024/03/05 12:22:49;;;;;;;33.70;19.60;;;;;;;;;;107480;1256;61208;-82
2024/03/05 12:25:17;;;;;;;34.20;19.50;;;;;;;;;;107403;1254;61350;-83
2024/03/05 12:27:46;;;;;;;36.40;20.20;;;;;;;;;;107277;1254;61995;-83
2024/03/05 12:30:12;;;;;;;32.40;17.80;;;;;;;;;;107308;1254;59690;-83
2024/03/05 12:32:44;;;;;;;34.30;19.80;;;;;;;;;;107301;1251;61247;-83
2024/03/05 12:35:11;;;;;;;34.90;18.90;;;;;;;;;;107299;1254;61434;-84
2024/03/05 12:37:39;;;;;;;33.60;18.70;;;;;;;;;;108360;1253;59202;-83
2024/03/05 12:40:09;;;;;;;30.50;18.40;;;;;;;;;;108898;1254;61249;-82
2024/03/05 12:42:35;;;;;;;31.60;19.00;;;;;;;;;;108432;1253;60994;-83
2024/03/05 12:45:03;;;;;;;35.00;18.90;;;;;;;;;;109306;1254;59719;-82
2024/03/05 12:47:29;;;;;;;51.50;30.20;;;;;;;;;;109214;1253;59163;-83
2024/03/05 12:49:59;;;;;;;147.70;124.40;;;;;;;;;;109425;1253;58907;-84
2024/03/05 12:52:25;;;;;;;54.50;39.80;;;;;;;;;;109381;1251;60719;-84
2024/03/05 12:54:58;;;;;;;38.80;25.80;;;;;;;;;;109287;1254;59078;-82
2024/03/05 12:57:25;;;;;;;35.70;21.10;;;;;;;;;;109333;1253;58951;-82
2024/03/05 12:59:52;;;;;;;34.30;21.00;;;;;;;;;;109353;1253;59062;-84
2024/03/05 13:02:19;;;;;;;39.10;22.70;;;;;;;;;;107455;1256;61157;-83
2024/03/05 13:04:45;;;;;;;52.10;28.60;;;;;;;;;;107331;1253;61597;-83
2024/03/05 13:07:12;;;;;;;36.40;18.90;;;;;;;;;;107377;1254;61232;-82
2024/03/05 13:09:39;;;;;;;44.20;23.90;;;;;;;;;;107266;1256;61684;-81
2024/03/05 13:12:05;;;;;;;94.90;54.20;;;;;;;;;;107346;1251;61304;-83
2024/03/05 13:14:31;;;;;;;131.20;74.10;;;;;;;;;;107383;1254;61635;-82
2024/03/05 13:16:58;;;;;;;56.60;33.80;;;;;;;;;;107305;1256;62676;-82
2024/03/05 13:19:24;;;;;;;44.20;26.40;;;;;;;;;;107322;1256;61233;-82
2024/03/05 13:21:51;;;;;;;42.20;24.80;;;;;;;;;;107043;1254;61411;-81
2024/03/05 13:24:17;;;;;;;58.20;35.50;;;;;;;;;;107239;1256;61285;-82
2024/03/05 13:26:47;;;;;;;182.80;113.10;;;;;;;;;;107310;1256;61118;-82
2024/03/05 13:29:14;;;;;;;56.70;39.40;;;;;;;;;;107192;1256;62036;-82
2024/03/05 13:31:40;;;;;;;116.70;63.00;;;;;;;;;;107259;1252;61381;-81
2024/03/05 13:34:10;;;;;;;44.20;27.00;;;;;;;;;;107419;1254;61275;-82
2024/03/05 13:36:40;;;;;;;48.50;28.70;;;;;;;;;;107328;1254;59576;-81
2024/03/05 13:39:08;;;;;;;42.70;29.10;;;;;;;;;;107298;1253;61298;-82
2024/03/05 13:41:35;;;;;;;39.40;25.10;;;;;;;;;;107234;1254;61889;-82
2024/03/05 13:44:02;;;;;;;45.70;24.40;;;;;;;;;;107320;1256;61291;-82
2024/03/05 13:46:28;;;;;;;45.20;30.40;;;;;;;;;;107339;1256;59847;-82
2024/03/05 13:48:58;;;;;;;50.00;28.80;;;;;;;;;;107417;1254;61163;-82
2024/03/05 13:51:27;;;;;;;48.00;29.80;;;;;;;;;;107394;1254;61118;-81
2024/03/05 13:53:54;;;;;;;119.20;75.80;;;;;;;;;;107383;1253;60599;-82
2024/03/05 13:56:20;;;;;;;75.90;51.40;;;;;;;;;;107232;1259;61296;-82
2024/03/05 13:58:47;;;;;;;63.50;42.30;;;;;;;;;;107180;1253;61135;-82
2024/03/05 14:01:13;;;;;;;57.10;35.70;;;;;;;;;;107270;1256;61150;-82
2024/03/05 14:03:40;;;;;;;56.40;36.00;;;;;;;;;;107374;1253;59081;-82
2024/03/05 14:06:07;;;;;;;51.70;31.60;;;;;;;;;;107461;1256;61237;-83
2024/03/05 14:08:34;;;;;;;53.80;37.00;;;;;;;;;;107453;1254;60001;-83
2024/03/05 14:11:01;;;;;;;50.10;31.80;;;;;;;;;;107246;1256;61314;-83
2024/03/05 14:13:27;;;;;;;42.20;25.40;;;;;;;;;;107326;1256;61651;-82